createdAt,value
2018-10-16T00:00:15.085Z,13.83
2018-10-16T00:02:44.257Z,12.47
2018-10-16T00:05:12.839Z,13.30
2018-10-16T00:07:41.386Z,14.07
2018-10-16T00:10:10.494Z,12.87
2018-10-16T00:12:39.182Z,13.90
2018-10-16T00:15:09.305Z,13.53
2018-10-16T00:17:37.868Z,15.90
2018-10-16T00:20:07.219Z,15.30
2018-10-16T00:22:36.074Z,16.27
2018-10-16T00:25:04.634Z,14.23
2018-10-16T00:27:33.195Z,13.40
2018-10-16T00:30:01.779Z,14.47
2018-10-16T00:32:30.433Z,13.63
2018-10-16T00:34:58.966Z,15.83
2018-10-16T00:37:27.561Z,14.70
2018-10-16T00:39:56.097Z,14.87
2018-10-16T00:42:24.650Z,12.97
2018-10-16T00:44:53.193Z,13.10
2018-10-16T00:47:21.758Z,13.97
2018-10-16T00:49:50.295Z,12.70
2018-10-16T00:52:18.859Z,13.17
2018-10-16T00:54:47.438Z,12.53
2018-10-16T00:57:16.047Z,15.17
2018-10-16T00:59:57.778Z,13.83
2018-10-16T01:02:29.920Z,12.90
2018-10-16T01:04:58.582Z,12.80
2018-10-16T01:07:27.164Z,14.03
2018-10-16T01:09:55.700Z,13.60
2018-10-16T01:12:24.267Z,13.70
2018-10-16T01:14:52.790Z,13.37
2018-10-16T01:17:21.363Z,13.47
2018-10-16T01:19:49.889Z,13.37
2018-10-16T01:22:18.453Z,15.07
2018-10-16T01:24:46.977Z,14.17
2018-10-16T01:27:15.580Z,12.63
2018-10-16T01:29:44.118Z,13.10
2018-10-16T01:32:12.652Z,13.10
2018-10-16T01:34:42.249Z,13.10
2018-10-16T01:37:10.816Z,15.70
2018-10-16T01:39:39.376Z,14.57
2018-10-16T01:42:07.915Z,13.67
2018-10-16T01:44:36.494Z,13.60
2018-10-16T01:47:05.282Z,13.43
2018-10-16T01:49:33.839Z,13.40
2018-10-16T01:52:02.381Z,12.80
2018-10-16T01:54:30.937Z,12.80
2018-10-16T01:56:59.483Z,13.33
2018-10-16T01:59:28.054Z,14.50
2018-10-16T02:01:56.603Z,13.07
2018-10-16T02:04:25.157Z,12.20
2018-10-16T02:06:53.698Z,12.77
2018-10-16T02:09:23.015Z,13.43
2018-10-16T02:11:51.559Z,14.17
2018-10-16T02:14:20.117Z,13.13
2018-10-16T02:16:48.640Z,13.20
2018-10-16T02:19:17.204Z,13.40
2018-10-16T02:21:45.738Z,12.63
2018-10-16T02:24:14.367Z,12.70
2018-10-16T02:26:42.905Z,12.83
2018-10-16T02:29:11.472Z,12.80
2018-10-16T02:31:40.003Z,12.80
2018-10-16T02:34:08.537Z,13.30
2018-10-16T02:36:37.122Z,14.30
2018-10-16T02:39:08.208Z,12.20
2018-10-16T02:41:36.887Z,12.90
2018-10-16T02:44:06.253Z,12.43
2018-10-16T02:46:34.823Z,13.40
2018-10-16T02:49:03.352Z,12.63
2018-10-16T02:51:31.902Z,13.30
2018-10-16T02:54:00.440Z,12.50
2018-10-16T02:56:28.994Z,12.33
2018-10-16T02:58:57.543Z,13.10
2018-10-16T03:01:26.383Z,13.30
2018-10-16T03:03:54.917Z,14.57
2018-10-16T03:06:23.481Z,14.97
2018-10-16T03:08:52.055Z,14.67
2018-10-16T03:11:20.618Z,13.10
2018-10-16T03:13:49.154Z,13.40
2018-10-16T03:16:17.739Z,13.73
2018-10-16T03:18:46.281Z,13.10
2018-10-16T03:21:14.851Z,13.33
2018-10-16T03:23:43.377Z,13.20
2018-10-16T03:26:11.935Z,13.03
2018-10-16T03:28:40.473Z,12.87
2018-10-16T03:31:09.037Z,12.40
2018-10-16T03:33:37.599Z,11.67
2018-10-16T03:36:06.677Z,12.43
2018-10-16T03:38:35.249Z,12.30
2018-10-16T03:41:03.834Z,12.90
2018-10-16T03:43:32.399Z,12.30
2018-10-16T03:46:00.958Z,11.90
2018-10-16T03:48:29.483Z,11.53
2018-10-16T03:50:58.062Z,12.27
2018-10-16T03:53:26.717Z,12.80
2018-10-16T03:55:55.270Z,13.20
2018-10-16T03:58:23.798Z,12.50
2018-10-16T04:00:52.343Z,12.47
2018-10-16T04:03:20.862Z,13.47
2018-10-16T04:05:49.489Z,14.03
2018-10-16T04:08:18.063Z,13.03
2018-10-16T04:10:46.641Z,13.37
2018-10-16T04:13:15.205Z,12.83
2018-10-16T04:15:43.790Z,14.77
2018-10-16T04:18:12.319Z,12.67
2018-10-16T04:20:40.898Z,13.90
2018-10-16T04:23:09.406Z,15.00
2018-10-16T04:25:37.934Z,12.00
2018-10-16T04:28:06.704Z,12.30
2018-10-16T04:30:35.264Z,12.97
2018-10-16T04:33:03.757Z,13.27
2018-10-16T04:35:32.301Z,13.20
2018-10-16T04:38:00.833Z,14.00
2018-10-16T04:40:29.347Z,14.00
2018-10-16T04:42:57.886Z,13.83
2018-10-16T04:45:26.404Z,15.30
2018-10-16T04:47:54.959Z,14.57
2018-10-16T04:50:23.483Z,16.60
2018-10-16T04:52:52.025Z,15.30
2018-10-16T04:55:20.632Z,15.17
2018-10-16T04:57:49.121Z,14.60
2018-10-16T05:00:17.631Z,14.17
2018-10-16T05:02:46.221Z,14.37
2018-10-16T05:05:21.533Z,14.03
2018-10-16T05:07:50.771Z,12.60
2018-10-16T05:10:20.004Z,13.67
2018-10-16T05:12:48.638Z,13.73
2018-10-16T05:15:26.993Z,13.80
2018-10-16T05:17:55.935Z,13.23
2018-10-16T05:20:24.462Z,11.80
2018-10-16T05:22:53.345Z,13.10
2018-10-16T05:25:21.931Z,14.00
2018-10-16T05:27:50.525Z,14.07
2018-10-16T05:30:19.104Z,13.27
2018-10-16T05:32:47.691Z,14.20
2018-10-16T05:35:16.216Z,13.83
2018-10-16T05:37:44.767Z,12.63
2018-10-16T05:40:13.289Z,13.07
2018-10-16T05:42:41.819Z,14.00
2018-10-16T05:45:12.278Z,13.80
2018-10-16T05:47:41.983Z,14.13
2018-10-16T05:50:11.080Z,13.33
2018-10-16T05:52:39.630Z,13.90
2018-10-16T05:55:08.486Z,13.17
2018-10-16T05:57:37.082Z,13.90
2018-10-16T06:00:17.839Z,14.17
2018-10-16T06:02:47.455Z,14.80
2018-10-16T06:05:15.986Z,14.03
2018-10-16T06:07:44.956Z,12.77
2018-10-16T06:10:13.878Z,12.80
2018-10-16T06:12:42.442Z,13.83
2018-10-16T06:15:11.697Z,13.90
2018-10-16T06:17:40.223Z,13.40
2018-10-16T06:20:11.488Z,13.80
2018-10-16T06:22:40.095Z,12.93
2018-10-16T06:25:09.593Z,14.87
2018-10-16T06:27:38.422Z,13.00
2018-10-16T06:30:07.092Z,13.63
2018-10-16T06:32:35.973Z,14.03
2018-10-16T06:35:04.536Z,14.70
2018-10-16T06:37:33.079Z,13.33
2018-10-16T06:40:01.613Z,13.73
2018-10-16T06:42:30.132Z,12.70
2018-10-16T06:44:58.662Z,13.30
2018-10-16T06:47:27.275Z,14.73
2018-10-16T06:49:55.728Z,15.60
2018-10-16T06:52:24.254Z,14.17
2018-10-16T06:54:52.808Z,16.00
2018-10-16T06:57:21.334Z,16.13
2018-10-16T06:59:49.879Z,14.40
2018-10-16T07:02:18.392Z,14.67
2018-10-16T07:04:47.266Z,14.90
2018-10-16T07:07:15.993Z,15.10
2018-10-16T07:09:44.364Z,16.10
2018-10-16T07:12:12.904Z,17.10
2018-10-16T07:14:41.414Z,18.17
2018-10-16T07:17:09.955Z,16.90
2018-10-16T07:19:38.462Z,19.67
2018-10-16T07:22:10.165Z,18.73
2018-10-16T07:24:38.719Z,18.93
2018-10-16T07:27:07.273Z,18.07
2018-10-16T07:29:35.987Z,18.37
2018-10-16T07:32:05.366Z,18.30
2018-10-16T07:34:34.335Z,18.60
2018-10-16T07:37:02.948Z,17.97
2018-10-16T07:39:31.461Z,18.40
2018-10-16T07:42:00.054Z,16.70
2018-10-16T07:44:28.563Z,17.57
2018-10-16T07:46:57.146Z,17.07
2018-10-16T07:49:25.673Z,17.87
2018-10-16T07:51:54.237Z,17.50
2018-10-16T07:54:22.759Z,17.90
2018-10-16T07:56:51.598Z,17.67
2018-10-16T07:59:20.132Z,17.33
2018-10-16T08:01:49.258Z,18.23
2018-10-16T08:04:17.780Z,17.17
2018-10-16T08:06:46.345Z,18.07
2018-10-16T08:09:16.409Z,17.80
2018-10-16T08:11:50.028Z,17.80
2018-10-16T08:14:19.431Z,19.83
2018-10-16T08:16:49.302Z,20.07
2018-10-16T08:19:17.814Z,20.03
2018-10-16T08:21:47.241Z,20.87
2018-10-16T08:24:15.806Z,22.80
2018-10-16T08:26:44.366Z,21.10
2018-10-16T08:29:12.879Z,21.07
2018-10-16T08:31:41.396Z,19.80
2018-10-16T08:34:10.060Z,20.63
2018-10-16T08:36:38.561Z,20.60
2018-10-16T08:39:15.910Z,19.93
2018-10-16T08:41:57.011Z,19.93
2018-10-16T08:44:36.666Z,20.60
2018-10-16T08:47:16.532Z,20.30
2018-10-16T08:49:56.346Z,20.30
2018-10-16T08:52:24.886Z,17.97
2018-10-16T08:54:53.461Z,18.70
2018-10-16T08:57:21.945Z,18.20
2018-10-16T08:59:50.495Z,17.80
2018-10-16T09:02:19.003Z,18.50
2018-10-16T09:04:47.545Z,18.47
2018-10-16T09:07:16.070Z,18.50
2018-10-16T09:09:44.619Z,17.37
2018-10-16T09:12:13.133Z,17.70
2018-10-16T09:14:41.684Z,17.53
2018-10-16T09:17:10.284Z,16.10
2018-10-16T09:19:38.818Z,15.33
2018-10-16T09:22:07.360Z,15.37
2018-10-16T09:24:35.913Z,15.80
2018-10-16T09:27:04.457Z,15.50
2018-10-16T09:29:33.055Z,15.60
2018-10-16T09:32:01.618Z,14.03
2018-10-16T09:34:30.198Z,14.67
2018-10-16T09:36:58.733Z,14.63
2018-10-16T09:39:27.290Z,14.63
2018-10-16T09:41:55.822Z,13.10
2018-10-16T09:44:24.371Z,14.53
2018-10-16T09:46:52.892Z,15.30
2018-10-16T09:49:21.438Z,14.37
2018-10-16T09:51:49.950Z,14.40
2018-10-16T09:54:18.502Z,13.77
2018-10-16T09:56:47.015Z,13.97
2018-10-16T09:59:15.549Z,13.30
2018-10-16T10:01:46.476Z,15.23
2018-10-16T10:04:15.097Z,15.20
2018-10-16T10:06:43.626Z,13.90
2018-10-16T10:09:13.279Z,14.53
2018-10-16T10:11:42.221Z,15.40
2018-10-16T10:14:10.798Z,14.57
2018-10-16T10:16:39.644Z,14.07
2018-10-16T10:19:08.195Z,14.30
2018-10-16T10:21:36.818Z,14.10
2018-10-16T10:24:06.212Z,14.23
2018-10-16T10:26:34.777Z,13.30
2018-10-16T10:29:03.302Z,14.57
2018-10-16T10:31:31.855Z,13.77
2018-10-16T10:34:00.375Z,13.00
2018-10-16T10:36:28.925Z,13.30
2018-10-16T10:38:57.443Z,13.07
2018-10-16T10:41:25.977Z,13.33
2018-10-16T10:43:54.487Z,13.37
2018-10-16T10:46:23.041Z,12.50
2018-10-16T10:48:51.544Z,12.87
2018-10-16T10:51:20.434Z,13.30
2018-10-16T10:53:48.653Z,12.90
2018-10-16T10:56:17.202Z,11.87
2018-10-16T10:58:45.721Z,11.10
2018-10-16T11:01:14.258Z,11.00
2018-10-16T11:03:42.836Z,10.90
2018-10-16T11:06:11.334Z,10.33
2018-10-16T11:11:20.354Z,11.60
2018-10-16T11:13:48.879Z,13.23
2018-10-16T11:16:17.408Z,13.37
2018-10-16T11:18:45.898Z,12.90
2018-10-16T11:21:14.563Z,11.70
2018-10-16T11:23:43.002Z,11.87
2018-10-16T11:26:11.532Z,12.13
2018-10-16T11:28:40.039Z,10.97
2018-10-16T11:31:08.530Z,11.70
2018-10-16T11:33:37.061Z,12.67
2018-10-16T11:36:05.709Z,13.30
2018-10-16T11:38:34.246Z,12.70
2018-10-16T11:41:02.748Z,12.37
2018-10-16T11:43:31.277Z,12.30
2018-10-16T11:45:59.831Z,12.40
2018-10-16T11:48:28.374Z,11.67
2018-10-16T11:50:56.944Z,12.10
2018-10-16T11:53:25.540Z,13.73
2018-10-16T11:55:54.112Z,13.07
2018-10-16T11:58:22.661Z,12.93
2018-10-16T12:00:51.198Z,13.67
2018-10-16T12:03:19.737Z,14.40
2018-10-16T12:05:48.254Z,15.87
2018-10-16T12:08:16.882Z,15.97
2018-10-16T12:10:45.433Z,15.03
2018-10-16T12:13:14.038Z,15.37
2018-10-16T12:15:42.532Z,13.70
2018-10-16T12:18:16.467Z,13.37
2018-10-16T12:20:48.462Z,14.10
2018-10-16T12:23:17.012Z,13.47
2018-10-16T12:25:45.537Z,12.70
2018-10-16T12:28:14.100Z,13.37
2018-10-16T12:30:42.605Z,11.93
2018-10-16T12:33:11.236Z,12.60
2018-10-16T12:35:39.701Z,12.17
2018-10-16T12:38:08.271Z,11.37
2018-10-16T12:40:36.780Z,10.90
2018-10-16T12:43:05.596Z,10.73
2018-10-16T12:45:34.167Z,10.87
2018-10-16T12:48:02.754Z,10.10
2018-10-16T12:50:31.262Z,10.60
2018-10-16T12:52:59.830Z,11.20
2018-10-16T12:55:28.368Z,10.43
2018-10-16T12:57:56.934Z,10.73
2018-10-16T13:00:25.471Z,10.73
2018-10-16T13:02:54.020Z,11.00
2018-10-16T13:05:22.638Z,11.27
2018-10-16T13:07:51.213Z,11.57
2018-10-16T13:10:19.940Z,11.60
2018-10-16T13:12:48.500Z,11.77
2018-10-16T13:15:17.774Z,11.70
2018-10-16T13:17:46.317Z,12.73
2018-10-16T13:20:15.668Z,13.57
2018-10-16T13:22:45.570Z,14.13
2018-10-16T13:25:15.157Z,12.93
2018-10-16T13:27:43.769Z,13.20
2018-10-16T13:30:20.044Z,13.87
2018-10-16T13:32:49.533Z,12.30
2018-10-16T13:35:19.294Z,11.37
2018-10-16T13:37:48.400Z,12.27
2018-10-16T13:40:16.982Z,12.77
2018-10-16T13:42:45.680Z,12.37
2018-10-16T13:45:15.760Z,11.63
2018-10-16T13:47:44.283Z,12.30
2018-10-16T13:50:14.368Z,12.60
2018-10-16T13:52:43.158Z,14.10
2018-10-16T13:55:12.425Z,13.10
2018-10-16T13:57:41.486Z,13.63
2018-10-16T14:00:17.463Z,14.20
2018-10-16T14:02:47.295Z,12.90
2018-10-16T14:05:15.978Z,12.70
2018-10-16T14:07:44.582Z,15.60
2018-10-16T14:10:14.320Z,14.33
2018-10-16T14:12:43.842Z,11.80
2018-10-16T14:15:13.001Z,12.30
2018-10-16T14:17:41.561Z,11.80
2018-10-16T14:20:10.636Z,11.63
2018-10-16T14:22:40.318Z,11.90
2018-10-16T14:25:10.533Z,11.50
2018-10-16T14:27:39.471Z,11.93
2018-10-16T14:30:09.678Z,12.07
2018-10-16T14:32:38.345Z,12.30
2018-10-16T14:35:07.609Z,12.97
2018-10-16T14:37:36.233Z,12.50
2018-10-16T14:40:04.981Z,12.90
2018-10-16T14:42:33.479Z,13.10
2018-10-16T14:45:02.001Z,14.67
2018-10-16T14:47:30.544Z,16.10
2018-10-16T14:49:59.076Z,15.83
2018-10-16T14:52:27.620Z,15.80
2018-10-16T14:54:56.160Z,14.20
2018-10-16T14:57:24.725Z,13.20
2018-10-16T14:59:53.253Z,13.40
2018-10-16T15:02:21.817Z,12.90
2018-10-16T15:04:50.379Z,13.60
2018-10-16T15:07:19.019Z,13.50
2018-10-16T15:09:47.565Z,13.63
2018-10-16T15:12:16.135Z,14.43
2018-10-16T15:14:44.695Z,13.57
2018-10-16T15:17:13.264Z,13.40
2018-10-16T15:19:41.807Z,13.80
2018-10-16T15:22:10.462Z,12.53
2018-10-16T15:24:38.926Z,14.00
2018-10-16T15:27:07.501Z,12.80
2018-10-16T15:29:36.098Z,12.50
2018-10-16T15:32:04.735Z,12.87
2018-10-16T15:34:33.242Z,15.33
2018-10-16T15:37:01.790Z,27.93
2018-10-16T15:39:30.361Z,41.27
2018-10-16T15:41:58.938Z,38.90
2018-10-16T15:44:27.787Z,33.93
2018-10-16T15:46:56.330Z,29.80
2018-10-16T15:49:24.887Z,31.13
2018-10-16T15:51:53.579Z,25.73
2018-10-16T15:54:22.127Z,16.90
2018-10-16T15:56:50.706Z,13.33
2018-10-16T15:59:19.250Z,11.13
2018-10-16T16:01:47.784Z,11.10
2018-10-16T16:04:16.353Z,10.50
2018-10-16T16:06:44.874Z,10.77
2018-10-16T16:09:13.431Z,11.30
2018-10-16T16:11:41.984Z,9.90
2018-10-16T16:14:10.577Z,10.27
2018-10-16T16:16:39.081Z,10.17
2018-10-16T16:19:07.680Z,10.37
2018-10-16T16:21:36.236Z,10.60
2018-10-16T16:24:04.861Z,9.60
2018-10-16T16:26:33.410Z,10.53
2018-10-16T16:29:01.930Z,10.17
2018-10-16T16:31:30.475Z,9.63
2018-10-16T16:33:59.046Z,9.40
2018-10-16T16:36:27.588Z,10.30
2018-10-16T16:38:56.167Z,11.30
2018-10-16T16:41:24.723Z,10.50
2018-10-16T16:43:53.377Z,10.53
2018-10-16T16:46:21.846Z,10.90
2018-10-16T16:48:50.353Z,12.27
2018-10-16T16:51:18.920Z,12.40
2018-10-16T16:53:47.440Z,12.43
2018-10-16T16:56:16.066Z,12.90
2018-10-16T16:58:44.523Z,13.93
2018-10-16T17:01:13.072Z,13.73
2018-10-16T17:03:41.606Z,13.60
2018-10-16T17:06:10.147Z,14.20
2018-10-16T17:08:38.674Z,14.60
2018-10-16T17:11:07.311Z,14.23
2018-10-16T17:13:35.831Z,15.70
2018-10-16T17:16:04.392Z,15.00
2018-10-16T17:18:32.921Z,19.00
2018-10-16T17:21:01.464Z,20.83
2018-10-16T17:23:29.979Z,16.17
2018-10-16T17:25:58.694Z,14.00
2018-10-16T17:28:27.087Z,13.60
2018-10-16T17:30:55.588Z,14.73
2018-10-16T17:33:24.134Z,13.30
2018-10-16T17:35:52.651Z,11.80
2018-10-16T17:38:21.210Z,11.23
2018-10-16T17:40:49.734Z,11.70
2018-10-16T17:43:18.260Z,13.67
2018-10-16T17:45:46.764Z,13.80
2018-10-16T17:48:15.394Z,13.90
2018-10-16T17:50:43.872Z,13.07
2018-10-16T17:53:12.407Z,13.27
2018-10-16T17:55:40.915Z,10.60
2018-10-16T17:58:09.473Z,11.60
2018-10-16T18:00:38.004Z,10.63
2018-10-16T18:03:06.827Z,11.33
2018-10-16T18:05:35.335Z,12.10
2018-10-16T18:08:03.885Z,13.47
2018-10-16T18:10:32.397Z,13.23
2018-10-16T18:13:00.939Z,13.47
2018-10-16T18:15:29.465Z,12.03
2018-10-16T18:17:58.019Z,10.10
2018-10-16T18:20:26.528Z,11.40
2018-10-16T18:22:55.103Z,11.20
2018-10-16T18:25:23.618Z,11.63
2018-10-16T18:27:52.133Z,14.00
2018-10-16T18:30:20.690Z,14.50
2018-10-16T18:32:49.189Z,14.83
2018-10-16T18:35:17.727Z,14.00
2018-10-16T18:37:46.304Z,13.80
2018-10-16T18:40:15.157Z,14.07
2018-10-16T18:42:43.685Z,11.93
2018-10-16T18:45:13.669Z,13.10
2018-10-16T18:47:42.125Z,12.70
2018-10-16T18:50:11.902Z,14.07
2018-10-16T18:52:40.575Z,13.70
2018-10-16T18:55:10.850Z,14.03
2018-10-16T18:57:39.409Z,13.67
2018-10-16T19:00:10.313Z,14.10
2018-10-16T19:02:38.930Z,13.30
2018-10-16T19:05:08.433Z,12.20
2018-10-16T19:07:36.991Z,13.77
2018-10-16T19:10:06.294Z,13.50
2018-10-16T19:12:35.143Z,14.70
2018-10-16T19:15:03.811Z,14.53
2018-10-16T19:17:32.328Z,14.40
2018-10-16T19:20:00.936Z,15.20
2018-10-16T19:22:29.441Z,12.70
2018-10-16T19:24:57.990Z,11.83
2018-10-16T19:27:26.561Z,14.07
2018-10-16T19:29:55.123Z,14.90
2018-10-16T19:32:23.621Z,14.77
2018-10-16T19:34:52.139Z,14.50
2018-10-16T19:37:20.730Z,15.03
2018-10-16T19:39:49.313Z,13.53
2018-10-16T19:42:17.851Z,13.90
2018-10-16T19:44:46.397Z,14.80
2018-10-16T19:47:15.413Z,15.43
2018-10-16T19:49:43.920Z,14.47
2018-10-16T19:52:12.482Z,13.67
2018-10-16T19:54:41.029Z,13.53
2018-10-16T19:57:09.680Z,13.23
2018-10-16T19:59:38.130Z,14.10
2018-10-16T20:02:07.650Z,14.60
2018-10-16T20:04:36.283Z,16.13
2018-10-16T20:07:05.359Z,14.07
2018-10-16T20:09:34.839Z,14.60
2018-10-16T20:12:04.372Z,13.37
2018-10-16T20:14:33.000Z,13.40
2018-10-16T20:17:01.615Z,14.20
2018-10-16T20:19:30.518Z,14.53
2018-10-16T20:21:59.089Z,14.60
2018-10-16T20:24:27.666Z,15.30
2018-10-16T20:26:56.212Z,15.70
2018-10-16T20:29:24.746Z,14.83
2018-10-16T20:31:53.315Z,15.13
2018-10-16T20:34:21.823Z,15.17
2018-10-16T20:36:50.393Z,15.80
2018-10-16T20:39:19.083Z,15.93
2018-10-16T20:41:47.658Z,15.00
2018-10-16T20:44:16.186Z,17.50
2018-10-16T20:46:44.718Z,16.80
2018-10-16T20:49:13.326Z,15.30
2018-10-16T20:51:41.816Z,15.47
2018-10-16T20:54:10.333Z,16.37
2018-10-16T20:56:38.879Z,16.87
2018-10-16T20:59:07.387Z,17.53
2018-10-16T21:01:35.926Z,17.90
2018-10-16T21:04:04.782Z,17.80
2018-10-16T21:06:33.495Z,16.63
2018-10-16T21:09:01.882Z,17.90
2018-10-16T21:11:30.434Z,17.90
2018-10-16T21:13:58.954Z,17.47
2018-10-16T21:16:27.443Z,18.10
2018-10-16T21:18:55.973Z,17.60
2018-10-16T21:21:24.488Z,17.43
2018-10-16T21:23:53.029Z,16.47
2018-10-16T21:26:21.658Z,16.60
2018-10-16T21:28:50.205Z,15.73
2018-10-16T21:31:18.733Z,17.23
2018-10-16T21:33:47.269Z,16.17
2018-10-16T21:36:15.807Z,16.93
2018-10-16T21:38:44.349Z,16.10
2018-10-16T21:41:12.952Z,24.10
2018-10-16T21:43:41.538Z,24.33
2018-10-16T21:46:10.052Z,21.80
2018-10-16T21:48:38.578Z,20.80
2018-10-16T21:51:07.094Z,12.93
2018-10-16T21:53:35.609Z,7.97
2018-10-16T21:56:04.197Z,11.10
2018-10-16T21:58:32.729Z,9.90
2018-10-16T22:01:06.475Z,15.60
2018-10-16T22:03:35.027Z,13.30
2018-10-16T22:06:03.556Z,14.87
2018-10-16T22:08:32.090Z,16.60
2018-10-16T22:11:00.636Z,14.37
2018-10-16T22:13:29.180Z,18.13
2018-10-16T22:15:57.697Z,16.10
2018-10-16T22:18:26.236Z,16.67
2018-10-16T22:20:54.779Z,28.07
2018-10-16T22:23:23.312Z,17.20
2018-10-16T22:25:51.825Z,17.77
2018-10-16T22:28:20.393Z,22.47
2018-10-16T22:30:48.901Z,21.20
2018-10-16T22:33:17.440Z,17.70
2018-10-16T22:35:45.966Z,17.63
2018-10-16T22:38:14.493Z,18.03
2018-10-16T22:40:42.984Z,19.73
2018-10-16T22:43:11.583Z,19.93
2018-10-16T22:45:40.088Z,20.47
2018-10-16T22:48:08.638Z,19.47
2018-10-16T22:50:37.207Z,20.57
2018-10-16T22:53:05.877Z,18.27
2018-10-16T22:55:34.403Z,19.87
2018-10-16T22:58:02.942Z,19.37
2018-10-16T23:00:31.450Z,16.87
2018-10-16T23:02:59.989Z,15.87
2018-10-16T23:05:28.514Z,19.53
2018-10-16T23:07:57.069Z,25.67
2018-10-16T23:10:25.585Z,17.57
2018-10-16T23:13:00.851Z,18.33
2018-10-16T23:15:29.336Z,16.70
2018-10-16T23:17:57.879Z,15.50
2018-10-16T23:20:26.456Z,18.93
2018-10-16T23:22:55.148Z,16.53
2018-10-16T23:25:23.655Z,14.87
2018-10-16T23:27:52.249Z,14.77
2018-10-16T23:30:20.803Z,25.30
2018-10-16T23:32:49.423Z,15.77
2018-10-16T23:35:18.010Z,15.67
2018-10-16T23:37:46.531Z,15.60
2018-10-16T23:40:15.078Z,18.97
2018-10-16T23:42:43.599Z,23.50
2018-10-16T23:45:12.146Z,22.17
2018-10-16T23:47:40.669Z,21.57
2018-10-16T23:50:09.230Z,14.30
2018-10-16T23:52:37.746Z,14.27
2018-10-16T23:55:08.035Z,15.47
2018-10-16T23:57:36.544Z,13.67
